Language: 


Des rapports , des résumés tant et plus, au choix de chacun....


Données Historiques de Météogheer
Journalier Rapport pour Février 3, 2017 Unitée:  Les deux    Impériale   Métrique
Suivant Jour »
Journalier Hebdomadaire Mensuel Annuel Sur mesure
  Max: Min: Moyenne:
Température: 53.4 °F /  11.9 °C 44.8 °F /  7.1 °C 49.1 °F /  9.5 °C
Point de rosée: 49.6 °F /  9.8 °C 40.5 °F /  4.7 °C 44.4 °F /  6.9 °C
Humidité: 97% 63% 85%
Vent: 15.2mph /  24.5km/h - 7.1mph /  11.5km/h
Rafales: 24.2mph /  38.9km/h - -
Vent- - South
Pression: 29.6 in /  1001.9 hPa 29.4 in /  995.1 hPa -
Pluie: 0 in /  0.0 mm    
Historical Graphs
 
 
Données tabulaires pour Février 3, 2017
Heure Température Point de rosée Pression Vent Vent Rafales Humidité Pluie Taux (Horaire) Conditions
00:04 51.4 °F /  10.8 °C 49.5 °F /  9.7 °C 29.5in /  998.9hPa South 4.9mph /  7.9km/h 9.8mph /  15.8km/h 93% 0in /  0.0mm
00:09 51.4 °F /  10.8 °C 49.5 °F /  9.7 °C 29.5in /  999.9hPa SSW 6.3mph /  10.1km/h 9.8mph /  15.8km/h 93% 0in /  0.0mm
00:14 51.3 °F /  10.7 °C 49.3 °F /  9.6 °C 29.5in /  999.9hPa SSW 5.8mph /  9.3km/h 8.5mph /  13.7km/h 93% 0in /  0.0mm
00:19 51.3 °F /  10.7 °C 49.6 °F /  9.8 °C 29.5in /  999.9hPa South 8.5mph /  13.7km/h 8.5mph /  13.7km/h 94% 0in /  0.0mm
00:24 51.3 °F /  10.7 °C 49.6 °F /  9.8 °C 29.6in /  1000.9hPa SSW 4.3mph /  6.9km/h 8.7mph /  14.0km/h 94% 0in /  0.0mm
00:29 51.3 °F /  10.7 °C 49.6 °F /  9.8 °C 29.6in /  1000.9hPa SSE 6.5mph /  10.5km/h 8.7mph /  14.0km/h 94% 0in /  0.0mm
00:34 51.3 °F /  10.7 °C 49.6 °F /  9.8 °C 29.6in /  1000.9hPa South 4mph /  6.4km/h 9.8mph /  15.8km/h 94% 0in /  0.0mm
00:39 51.3 °F /  10.7 °C 49.6 °F /  9.8 °C 29.5in /  999.9hPa South 7.4mph /  11.9km/h 9.8mph /  15.8km/h 94% 0in /  0.0mm
00:44 51.3 °F /  10.7 °C 49.6 °F /  9.8 °C 29.5in /  999.9hPa SSW 6mph /  9.7km/h 8.7mph /  14.0km/h 94% 0in /  0.0mm
00:49 51.3 °F /  10.7 °C 49.6 °F /  9.8 °C 29.5in /  999.9hPa SSW 3.8mph /  6.1km/h 8.7mph /  14.0km/h 94% 0in /  0.0mm
00:54 51.3 °F /  10.7 °C 49.6 °F /  9.8 °C 29.6in /  1000.9hPa SW 5.8mph /  9.3km/h 8.5mph /  13.7km/h 94% 0in /  0.0mm
00:59 51.3 °F /  10.7 °C 49.6 °F /  9.8 °C 29.6in /  1000.9hPa South 4.9mph /  7.9km/h 8.5mph /  13.7km/h 94% 0in /  0.0mm
01:04 51.1 °F /  10.6 °C 49.5 °F /  9.7 °C 29.6in /  1000.9hPa South 6.5mph /  10.5km/h 10.1mph /  16.3km/h 94% 0in /  0.0mm
01:09 51.1 °F /  10.6 °C 49.5 °F /  9.7 °C 29.6in /  1000.9hPa SSE 3.8mph /  6.1km/h 10.1mph /  16.3km/h 94% 0in /  0.0mm
01:14 51.1 °F /  10.6 °C 49.5 °F /  9.7 °C 29.6in /  1000.9hPa SSW 8.1mph /  13.0km/h 12.1mph /  19.5km/h 94% 0in /  0.0mm
01:19 51.1 °F /  10.6 °C 49.5 °F /  9.7 °C 29.6in /  1000.9hPa SSW 6.5mph /  10.5km/h 12.8mph /  20.6km/h 94% 0in /  0.0mm
01:24 51.1 °F /  10.6 °C 49.5 °F /  9.7 °C 29.6in /  1000.9hPa SSW 4.3mph /  6.9km/h 12.8mph /  20.6km/h 94% 0in /  0.0mm
01:29 50.9 °F /  10.5 °C 49.3 °F /  9.6 °C 29.6in /  1000.9hPa South 4.3mph /  6.9km/h 10.3mph /  16.6km/h 94% 0in /  0.0mm
01:34 50.9 °F /  10.5 °C 49.3 °F /  9.6 °C 29.6in /  1000.9hPa SSW 5.4mph /  8.7km/h 10.3mph /  16.6km/h 94% 0in /  0.0mm
01:39 50.7 °F /  10.4 °C 48.9 °F /  9.4 °C 29.5in /  999.9hPa South 0.9mph /  1.4km/h 7.2mph /  11.6km/h 94% 0in /  0.0mm
01:44 50.5 °F /  10.3 °C 48.9 °F /  9.4 °C 29.5in /  999.9hPa South 3.6mph /  5.8km/h 7.2mph /  11.6km/h 94% 0in /  0.0mm
01:49 50.5 °F /  10.3 °C 48.9 °F /  9.4 °C 29.5in /  999.9hPa SSW 6.3mph /  10.1km/h 9.4mph /  15.1km/h 94% 0in /  0.0mm
01:54 50.4 °F /  10.2 °C 48.7 °F /  9.3 °C 29.5in /  999.9hPa SW 3.6mph /  5.8km/h 9.4mph /  15.1km/h 94% 0in /  0.0mm
01:59 50.2 °F /  10.1 °C 48.6 °F /  9.2 °C 29.5in /  999.9hPa SSW 3.4mph /  5.5km/h 8.1mph /  13.0km/h 94% 0in /  0.0mm
02:04 50.2 °F /  10.1 °C 48.6 °F /  9.2 °C 29.5in /  999.9hPa SSW 6mph /  9.7km/h 6mph /  9.7km/h 94% 0in /  0.0mm
02:09 49.8 °F /  9.9 °C 48.2 °F /  9.0 °C 29.6in /  1000.9hPa SW 4.7mph /  7.6km/h 8.7mph /  14.0km/h 94% 0in /  0.0mm
02:14 49.8 °F /  9.9 °C 48.2 °F /  9.0 °C 29.6in /  1000.9hPa SSW 4mph /  6.4km/h 8.7mph /  14.0km/h 94% 0in /  0.0mm
02:19 49.5 °F /  9.7 °C 47.8 °F /  8.8 °C 29.6in /  1000.9hPa SSW 7.8mph /  12.6km/h 7.8mph /  12.6km/h 94% 0in /  0.0mm
02:24 49.3 °F /  9.6 °C 47.7 °F /  8.7 °C 29.5in /  999.9hPa SSW 2.5mph /  4.0km/h 7.8mph /  12.6km/h 94% 0in /  0.0mm
02:29 49.3 °F /  9.6 °C 47.7 °F /  8.7 °C 29.5in /  999.9hPa SSW 4.7mph /  7.6km/h 7.6mph /  12.2km/h 94% 0in /  0.0mm
02:34 48.9 °F /  9.4 °C 47.3 °F /  8.5 °C 29.5in /  999.9hPa SSW 7.4mph /  11.9km/h 8.5mph /  13.7km/h 94% 0in /  0.0mm
02:39 48.7 °F /  9.3 °C 47.1 °F /  8.4 °C 29.6in /  1000.9hPa SW 5.4mph /  8.7km/h 8.7mph /  14.0km/h 94% 0in /  0.0mm
02:44 48.7 °F /  9.3 °C 47.1 °F /  8.4 °C 29.6in /  1000.9hPa SSW 4.9mph /  7.9km/h 8.7mph /  14.0km/h 94% 0in /  0.0mm
02:49 48.7 °F /  9.3 °C 47.1 °F /  8.4 °C 29.6in /  1000.9hPa SSW 5.8mph /  9.3km/h 8.5mph /  13.7km/h 94% 0in /  0.0mm
02:54 48.6 °F /  9.2 °C 46.9 °F /  8.3 °C 29.5in /  999.9hPa SW 7.4mph /  11.9km/h 8.7mph /  14.0km/h 94% 0in /  0.0mm
02:59 48.6 °F /  9.2 °C 46.9 °F /  8.3 °C 29.5in /  999.9hPa SSW 0.9mph /  1.4km/h 8.7mph /  14.0km/h 94% 0in /  0.0mm
03:04 48.4 °F /  9.1 °C 46.8 °F /  8.2 °C 29.5in /  999.9hPa South 3.8mph /  6.1km/h 7.4mph /  11.9km/h 94% 0in /  0.0mm
03:09 48 °F /  8.9 °C 46 °F /  7.8 °C 29.6in /  1000.9hPa SSW 3.6mph /  5.8km/h 7.8mph /  12.6km/h 93% 0in /  0.0mm
03:14 47.8 °F /  8.8 °C 45.9 °F /  7.7 °C 29.6in /  1000.9hPa Calm   7.8mph /  12.6km/h 93% 0in /  0.0mm
03:19 47.7 °F /  8.7 °C 46 °F /  7.8 °C 29.6in /  1000.9hPa SSW 3.1mph /  5.0km/h 4.3mph /  6.9km/h 94% 0in /  0.0mm
03:24 47.5 °F /  8.6 °C 45.9 °F /  7.7 °C 29.6in /  1000.9hPa SSW 3.6mph /  5.8km/h 6.5mph /  10.5km/h 94% 0in /  0.0mm
03:29 47.5 °F /  8.6 °C 45.9 °F /  7.7 °C 29.6in /  1000.9hPa SSW 5.8mph /  9.3km/h 8.7mph /  14.0km/h 94% 0in /  0.0mm
03:34 47.5 °F /  8.6 °C 45.9 °F /  7.7 °C 29.6in /  1000.9hPa SSW 5.6mph /  9.0km/h 8.7mph /  14.0km/h 94% 0in /  0.0mm
03:39 47.5 °F /  8.6 °C 45.9 °F /  7.7 °C 29.6in /  1000.9hPa SSW 6.3mph /  10.1km/h 7.8mph /  12.6km/h 94% 0in /  0.0mm
03:44 47.5 °F /  8.6 °C 45.9 °F /  7.7 °C 29.6in /  1000.9hPa SW 5.4mph /  8.7km/h 7.8mph /  12.6km/h 94% 0in /  0.0mm
03:49 47.5 °F /  8.6 °C 46.2 °F /  7.9 °C 29.6in /  1000.9hPa South 3.1mph /  5.0km/h 7.4mph /  11.9km/h 95% 0in /  0.0mm
03:54 47.5 °F /  8.6 °C 46.2 °F /  7.9 °C 29.6in /  1000.9hPa South 5.4mph /  8.7km/h 7.8mph /  12.6km/h 95% 0in /  0.0mm
03:59 47.5 °F /  8.6 °C 46.2 °F /  7.9 °C 29.6in /  1000.9hPa South 5.6mph /  9.0km/h 8.1mph /  13.0km/h 95% 0in /  0.0mm
04:04 47.7 °F /  8.7 °C 46.2 °F /  7.9 °C 29.6in /  1000.9hPa SSW 7.2mph /  11.6km/h 8.1mph /  13.0km/h 95% 0in /  0.0mm
04:09 47.7 °F /  8.7 °C 46.2 °F /  7.9 °C 29.5in /  999.9hPa SSW 6.3mph /  10.1km/h 8.1mph /  13.0km/h 95% 0in /  0.0mm
04:14 47.7 °F /  8.7 °C 46.2 °F /  7.9 °C 29.5in /  999.9hPa SW 8.5mph /  13.7km/h 8.5mph /  13.7km/h 95% 0in /  0.0mm
04:19 47.7 °F /  8.7 °C 46.2 °F /  7.9 °C 29.5in /  999.9hPa SSW 5.6mph /  9.0km/h 8.5mph /  13.7km/h 95% 0in /  0.0mm
04:24 47.7 °F /  8.7 °C 46.2 °F /  7.9 °C 29.6in /  1000.9hPa SW 5.8mph /  9.3km/h 8.7mph /  14.0km/h 95% 0in /  0.0mm
04:29 47.7 °F /  8.7 °C 46.2 °F /  7.9 °C 29.6in /  1000.9hPa South 4.9mph /  7.9km/h 8.7mph /  14.0km/h 95% 0in /  0.0mm
04:34 47.5 °F /  8.6 °C 46.2 °F /  7.9 °C 29.6in /  1000.9hPa SW 6mph /  9.7km/h 7.8mph /  12.6km/h 95% 0in /  0.0mm
04:39 47.5 °F /  8.6 °C 46.2 °F /  7.9 °C 29.6in /  1000.9hPa SSW 7.4mph /  11.9km/h 8.1mph /  13.0km/h 95% 0in /  0.0mm
04:44 47.5 °F /  8.6 °C 46.2 °F /  7.9 °C 29.6in /  1000.9hPa South 6.5mph /  10.5km/h 8.1mph /  13.0km/h 95% 0in /  0.0mm
04:49 47.5 °F /  8.6 °C 46.2 °F /  7.9 °C 29.6in /  1000.9hPa SSW 3.6mph /  5.8km/h 7.4mph /  11.9km/h 95% 0in /  0.0mm
04:54 47.5 °F /  8.6 °C 46.2 °F /  7.9 °C 29.6in /  1000.9hPa SSW 7.4mph /  11.9km/h 7.6mph /  12.2km/h 95% 0in /  0.0mm
04:59 47.5 °F /  8.6 °C 46.2 °F /  7.9 °C 29.6in /  1000.9hPa SSW 6.5mph /  10.5km/h 7.8mph /  12.6km/h 95% 0in /  0.0mm
05:04 47.3 °F /  8.5 °C 46 °F /  7.8 °C 29.6in /  1000.9hPa South 7.8mph /  12.6km/h 9.8mph /  15.8km/h 95% 0in /  0.0mm
05:09 47.3 °F /  8.5 °C 46 °F /  7.8 °C 29.6in /  1000.9hPa SSW 6mph /  9.7km/h 9.8mph /  15.8km/h 95% 0in /  0.0mm
05:14 47.3 °F /  8.5 °C 46 °F /  7.8 °C 29.6in /  1000.9hPa South 5.4mph /  8.7km/h 7.4mph /  11.9km/h 95% 0in /  0.0mm
05:19 47.3 °F /  8.5 °C 46 °F /  7.8 °C 29.6in /  1000.9hPa South 4mph /  6.4km/h 7.4mph /  11.9km/h 95% 0in /  0.0mm
05:24 47.3 °F /  8.5 °C 46 °F /  7.8 °C 29.6in /  1000.9hPa SSW 4mph /  6.4km/h 7.8mph /  12.6km/h 95% 0in /  0.0mm
05:29 47.3 °F /  8.5 °C 46 °F /  7.8 °C 29.6in /  1000.9hPa SSW 3.1mph /  5.0km/h 7.8mph /  12.6km/h 95% 0in /  0.0mm
05:34 47.1 °F /  8.4 °C 45.9 °F /  7.7 °C 29.6in /  1000.9hPa SSW 3.4mph /  5.5km/h 7.4mph /  11.9km/h 95% 0in /  0.0mm
05:39 47.1 °F /  8.4 °C 45.9 °F /  7.7 °C 29.6in /  1000.9hPa SW 5.8mph /  9.3km/h 8.1mph /  13.0km/h 95% 0in /  0.0mm
05:44 47.1 °F /  8.4 °C 45.9 °F /  7.7 °C 29.6in /  1000.9hPa South 4.3mph /  6.9km/h 8.7mph /  14.0km/h 95% 0in /  0.0mm
05:49 47.1 °F /  8.4 °C 45.9 °F /  7.7 °C 29.6in /  1000.9hPa SSW 4.3mph /  6.9km/h 8.7mph /  14.0km/h 95% 0in /  0.0mm
05:54 47.1 °F /  8.4 °C 45.9 °F /  7.7 °C 29.6in /  1000.9hPa SSW 6mph /  9.7km/h 10.3mph /  16.6km/h 95% 0in /  0.0mm
05:59 47.1 °F /  8.4 °C 45.9 °F /  7.7 °C 29.6in /  1000.9hPa South 6mph /  9.7km/h 10.3mph /  16.6km/h 95% 0in /  0.0mm
06:04 47.1 °F /  8.4 °C 45.9 °F /  7.7 °C 29.6in /  1000.9hPa SW 4.9mph /  7.9km/h 8.5mph /  13.7km/h 95% 0in /  0.0mm
06:09 47.1 °F /  8.4 °C 45.9 °F /  7.7 °C 29.6in /  1000.9hPa SW 7.4mph /  11.9km/h 8.5mph /  13.7km/h 95% 0in /  0.0mm
06:14 47.1 °F /  8.4 °C 45.9 °F /  7.7 °C 29.6in /  1000.9hPa South 7.2mph /  11.6km/h 8.1mph /  13.0km/h 95% 0in /  0.0mm
06:19 47.1 °F /  8.4 °C 45.9 °F /  7.7 °C 29.6in /  1000.9hPa SW 4.3mph /  6.9km/h 9.2mph /  14.8km/h 95% 0in /  0.0mm
06:24 46.9 °F /  8.3 °C 45.7 °F /  7.6 °C 29.6in /  1000.9hPa SSW 4mph /  6.4km/h 9.2mph /  14.8km/h 95% 0in /  0.0mm
06:29 46.9 °F /  8.3 °C 45.7 °F /  7.6 °C 29.6in /  1000.9hPa South 7.2mph /  11.6km/h 8.7mph /  14.0km/h 95% 0in /  0.0mm
06:34 46.9 °F /  8.3 °C 45.7 °F /  7.6 °C 29.6in /  1000.9hPa SW 6mph /  9.7km/h 8.7mph /  14.0km/h 95% 0in /  0.0mm
06:39 46.8 °F /  8.2 °C 45.5 °F /  7.5 °C 29.6in /  1000.9hPa SSW 5.6mph /  9.0km/h 8.5mph /  13.7km/h 95% 0in /  0.0mm
06:44 46.8 °F /  8.2 °C 45.5 °F /  7.5 °C 29.6in /  1000.9hPa SSW 5.6mph /  9.0km/h 6.5mph /  10.5km/h 95% 0in /  0.0mm
06:49 46.6 °F /  8.1 °C 45.1 °F /  7.3 °C 29.6in /  1000.9hPa South 6mph /  9.7km/h 6mph /  9.7km/h 95% 0in /  0.0mm
06:54 46.6 °F /  8.1 °C 45.1 °F /  7.3 °C 29.6in /  1000.9hPa SSW 3.1mph /  5.0km/h 7.4mph /  11.9km/h 95% 0in /  0.0mm
06:59 46.6 °F /  8.1 °C 45.1 °F /  7.3 °C 29.6in /  1000.9hPa SSW 4mph /  6.4km/h 7.4mph /  11.9km/h 95% 0in /  0.0mm
07:04 46.2 °F /  7.9 °C 45 °F /  7.2 °C 29.6in /  1000.9hPa SSW 3.1mph /  5.0km/h 7.4mph /  11.9km/h 95% 0in /  0.0mm
07:09 46.2 °F /  7.9 °C 45 °F /  7.2 °C 29.6in /  1000.9hPa SW 3.8mph /  6.1km/h 7.4mph /  11.9km/h 95% 0in /  0.0mm
07:14 46 °F /  7.8 °C 44.8 °F /  7.1 °C 29.6in /  1000.9hPa SSW 2.7mph /  4.3km/h 5.4mph /  8.7km/h 95% 0in /  0.0mm
07:19 46 °F /  7.8 °C 44.8 °F /  7.1 °C 29.6in /  1000.9hPa SSW 4mph /  6.4km/h 5.6mph /  9.0km/h 95% 0in /  0.0mm
07:24 46 °F /  7.8 °C 44.8 °F /  7.1 °C 29.6in /  1000.9hPa SSW 6.5mph /  10.5km/h 6.5mph /  10.5km/h 95% 0in /  0.0mm
07:29 46 °F /  7.8 °C 45 °F /  7.2 °C 29.6in /  1000.9hPa SSW 3.4mph /  5.5km/h 7.2mph /  11.6km/h 96% 0in /  0.0mm
07:34 46 °F /  7.8 °C 45 °F /  7.2 °C 29.6in /  1000.9hPa South 6.3mph /  10.1km/h 7.8mph /  12.6km/h 96% 0in /  0.0mm
07:39 46 °F /  7.8 °C 45 °F /  7.2 °C 29.6in /  1000.9hPa South 6mph /  9.7km/h 8.1mph /  13.0km/h 96% 0in /  0.0mm
07:44 46 °F /  7.8 °C 45 °F /  7.2 °C 29.6in /  1000.9hPa SSW 7.8mph /  12.6km/h 8.1mph /  13.0km/h 96% 0in /  0.0mm
07:49 45.9 °F /  7.7 °C 45 °F /  7.2 °C 29.6in /  1000.9hPa SSW 5.4mph /  8.7km/h 8.1mph /  13.0km/h 96% 0in /  0.0mm
07:54 45.9 °F /  7.7 °C 45 °F /  7.2 °C 29.5in /  999.9hPa SSW 6.5mph /  10.5km/h 8.1mph /  13.0km/h 96% 0in /  0.0mm
07:59 45.9 °F /  7.7 °C 44.8 °F /  7.1 °C 29.5in /  999.9hPa SSW 4.9mph /  7.9km/h 6.9mph /  11.1km/h 96% 0in /  0.0mm
08:04 45.9 °F /  7.7 °C 44.8 °F /  7.1 °C 29.5in /  999.9hPa South 5.6mph /  9.0km/h 6.7mph /  10.8km/h 96% 0in /  0.0mm
08:09 45.9 °F /  7.7 °C 44.8 °F /  7.1 °C 29.6in /  1000.9hPa South 5.8mph /  9.3km/h 7.4mph /  11.9km/h 96% 0in /  0.0mm
08:14 45.7 °F /  7.6 °C 44.4 °F /  6.9 °C 29.6in /  1000.9hPa South 3.8mph /  6.1km/h 7.6mph /  12.2km/h 96% 0in /  0.0mm
08:19 45.7 °F /  7.6 °C 44.4 °F /  6.9 °C 29.6in /  1000.9hPa SSW 4.9mph /  7.9km/h 7.6mph /  12.2km/h 96% 0in /  0.0mm
08:24 45.7 °F /  7.6 °C 44.4 °F /  6.9 °C 29.6in /  1000.9hPa SSW 6mph /  9.7km/h 8.9mph /  14.3km/h 96% 0in /  0.0mm
08:29 45.3 °F /  7.4 °C 44.2 °F /  6.8 °C 29.6in /  1000.9hPa SSW 6mph /  9.7km/h 8.9mph /  14.3km/h 96% 0in /  0.0mm
08:34 45.3 °F /  7.4 °C 44.2 °F /  6.8 °C 29.6in /  1000.9hPa South 5.8mph /  9.3km/h 8.5mph /  13.7km/h 96% 0in /  0.0mm
08:39 45.3 °F /  7.4 °C 44.6 °F /  7.0 °C 29.6in /  1000.9hPa SSW 4.3mph /  6.9km/h 7.6mph /  12.2km/h 97% 0in /  0.0mm
08:44 45.1 °F /  7.3 °C 44.4 °F /  6.9 °C 29.6in /  1000.9hPa South 6.3mph /  10.1km/h 7.4mph /  11.9km/h 97% 0in /  0.0mm
08:49 45.3 °F /  7.4 °C 44.6 °F /  7.0 °C 29.6in /  1000.9hPa SSW 5.6mph /  9.0km/h 7.8mph /  12.6km/h 97% 0in /  0.0mm
08:54 45.7 °F /  7.6 °C 44.8 °F /  7.1 °C 29.6in /  1001.9hPa SSW 4.3mph /  6.9km/h 7.8mph /  12.6km/h 97% 0in /  0.0mm
08:59 45.7 °F /  7.6 °C 44.8 °F /  7.1 °C 29.6in /  1001.9hPa SSW 4.9mph /  7.9km/h 10.1mph /  16.3km/h 97% 0in /  0.0mm
09:04 45.9 °F /  7.7 °C 45 °F /  7.2 °C 29.6in /  1001.9hPa South 6mph /  9.7km/h 10.1mph /  16.3km/h 97% 0in /  0.0mm
09:09 45.9 °F /  7.7 °C 45.1 °F /  7.3 °C 29.6in /  1000.9hPa South 4mph /  6.4km/h 10.1mph /  16.3km/h 97% 0in /  0.0mm
09:14 46 °F /  7.8 °C 45.3 °F /  7.4 °C 29.6in /  1000.9hPa SSW 6mph /  9.7km/h 8.5mph /  13.7km/h 97% 0in /  0.0mm
09:19 46.2 °F /  7.9 °C 45.5 °F /  7.5 °C 29.6in /  1000.9hPa South 5.4mph /  8.7km/h 8.1mph /  13.0km/h 97% 0in /  0.0mm
09:24 46.6 °F /  8.1 °C 45.3 °F /  7.4 °C 29.6in /  1000.9hPa South 5.4mph /  8.7km/h 8.1mph /  13.0km/h 96% 0in /  0.0mm
09:29 46.8 °F /  8.2 °C 46 °F /  7.8 °C 29.6in /  1000.9hPa South 5.6mph /  9.0km/h 7.8mph /  12.6km/h 97% 0in /  0.0mm
09:34 47.1 °F /  8.4 °C 46.4 °F /  8.0 °C 29.6in /  1000.9hPa South 9.8mph /  15.8km/h 9.8mph /  15.8km/h 97% 0in /  0.0mm
09:39 47.5 °F /  8.6 °C 46.4 °F /  8.0 °C 29.6in /  1000.9hPa SSW 6.3mph /  10.1km/h 9.8mph /  15.8km/h 96% 0in /  0.0mm
09:44 47.8 °F /  8.8 °C 46.8 °F /  8.2 °C 29.6in /  1000.9hPa South 3.6mph /  5.8km/h 9.6mph /  15.4km/h 96% 0in /  0.0mm
09:49 48 °F /  8.9 °C 46.9 °F /  8.3 °C 29.6in /  1000.9hPa SSW 7.6mph /  12.2km/h 8.1mph /  13.0km/h 96% 0in /  0.0mm
09:54 48.2 °F /  9.0 °C 47.1 °F /  8.4 °C 29.6in /  1001.9hPa SSW 4.9mph /  7.9km/h 8.1mph /  13.0km/h 96% 0in /  0.0mm
09:59 48.4 °F /  9.1 °C 46.9 °F /  8.3 °C 29.6in /  1001.9hPa SSW 2.9mph /  4.7km/h 10.3mph /  16.6km/h 95% 0in /  0.0mm
10:04 48.6 °F /  9.2 °C 47.1 °F /  8.4 °C 29.6in /  1001.9hPa South 6.5mph /  10.5km/h 10.3mph /  16.6km/h 95% 0in /  0.0mm
10:09 48.7 °F /  9.3 °C 47.1 °F /  8.4 °C 29.6in /  1000.9hPa SSW 3.4mph /  5.5km/h 10.7mph /  17.2km/h 94% 0in /  0.0mm
10:14 48.9 °F /  9.4 °C 46.9 °F /  8.3 °C 29.6in /  1000.9hPa SSW 8.5mph /  13.7km/h 10.7mph /  17.2km/h 93% 0in /  0.0mm
10:19 48.9 °F /  9.4 °C 46.8 °F /  8.2 °C 29.6in /  1000.9hPa SSW 10.7mph /  17.2km/h 11mph /  17.7km/h 92% 0in /  0.0mm
10:24 49.1 °F /  9.5 °C 46.6 °F /  8.1 °C 29.6in /  1000.9hPa SSE 5.4mph /  8.7km/h 11.4mph /  18.3km/h 91% 0in /  0.0mm
10:29 49.5 °F /  9.7 °C 46.8 °F /  8.2 °C 29.6in /  1000.9hPa SSW 7.8mph /  12.6km/h 12.8mph /  20.6km/h 90% 0in /  0.0mm
10:34 49.6 °F /  9.8 °C 46.6 °F /  8.1 °C 29.6in /  1000.9hPa SSW 4.9mph /  7.9km/h 12.8mph /  20.6km/h 89% 0in /  0.0mm
10:39 49.8 °F /  9.9 °C 46.4 °F /  8.0 °C 29.6in /  1000.9hPa SSW 6.3mph /  10.1km/h 14.5mph /  23.3km/h 88% 0in /  0.0mm
10:44 50 °F /  10.0 °C 46 °F /  7.8 °C 29.6in /  1000.9hPa SSW 10.7mph /  17.2km/h 14.5mph /  23.3km/h 86% 0in /  0.0mm
10:49 50 °F /  10.0 °C 45.7 °F /  7.6 °C 29.6in /  1000.9hPa SSW 11.4mph /  18.3km/h 12.5mph /  20.1km/h 85% 0in /  0.0mm
10:54 50.4 °F /  10.2 °C 45.7 °F /  7.6 °C 29.6in /  1000.9hPa SW 9.8mph /  15.8km/h 15.2mph /  24.5km/h 84% 0in /  0.0mm
10:59 50.5 °F /  10.3 °C 45.9 °F /  7.7 °C 29.6in /  1000.9hPa SSW 7.6mph /  12.2km/h 15.2mph /  24.5km/h 84% 0in /  0.0mm
11:04 50.7 °F /  10.4 °C 45.7 °F /  7.6 °C 29.6in /  1000.9hPa SSW 6.3mph /  10.1km/h 13.2mph /  21.2km/h 83% 0in /  0.0mm
11:09 50.9 °F /  10.5 °C 45.9 °F /  7.7 °C 29.6in /  1000.9hPa SSW 6.3mph /  10.1km/h 13.2mph /  21.2km/h 83% 0in /  0.0mm
11:14 51.1 °F /  10.6 °C 45.7 °F /  7.6 °C 29.6in /  1000.9hPa SSW 12.1mph /  19.5km/h 14.5mph /  23.3km/h 82% 0in /  0.0mm
11:19 51.1 °F /  10.6 °C 45.7 °F /  7.6 °C 29.6in /  1000.9hPa SSW 6mph /  9.7km/h 14.5mph /  23.3km/h 82% 0in /  0.0mm
11:24 51.3 °F /  10.7 °C 45.9 °F /  7.7 °C 29.6in /  1000.9hPa SW 13mph /  20.9km/h 14.8mph /  23.8km/h 82% 0in /  0.0mm
11:29 51.3 °F /  10.7 °C 45.7 °F /  7.6 °C 29.6in /  1000.9hPa WSW 7.4mph /  11.9km/h 14.8mph /  23.8km/h 81% 0in /  0.0mm
11:34 51.6 °F /  10.9 °C 45.9 °F /  7.7 °C 29.6in /  1000.9hPa South 6.5mph /  10.5km/h 14.8mph /  23.8km/h 81% 0in /  0.0mm
11:39 51.1 °F /  10.6 °C 45.1 °F /  7.3 °C 29.6in /  1001.9hPa South 11.4mph /  18.3km/h 15.9mph /  25.6km/h 80% 0in /  0.0mm
11:44 51.3 °F /  10.7 °C 45.3 °F /  7.4 °C 29.6in /  1001.9hPa SSW 4mph /  6.4km/h 15.9mph /  25.6km/h 80% 0in /  0.0mm
11:49 51.3 °F /  10.7 °C 44.2 °F /  6.8 °C 29.6in /  1001.9hPa South 7.2mph /  11.6km/h 17.4mph /  28.0km/h 77% 0in /  0.0mm
11:54 51.4 °F /  10.8 °C 44.8 °F /  7.1 °C 29.6in /  1001.9hPa South 7.4mph /  11.9km/h 17.4mph /  28.0km/h 78% 0in /  0.0mm
11:59 51.8 °F /  11.0 °C 44.8 °F /  7.1 °C 29.6in /  1001.9hPa SSW 10.1mph /  16.3km/h 15.4mph /  24.8km/h 77% 0in /  0.0mm
12:04 52 °F /  11.1 °C 45 °F /  7.2 °C 29.6in /  1001.9hPa SSW 7.8mph /  12.6km/h 12.5mph /  20.1km/h 77% 0in /  0.0mm
12:09 52.3 °F /  11.3 °C 45.3 °F /  7.4 °C 29.6in /  1001.9hPa WSW 14.3mph /  23.0km/h 14.3mph /  23.0km/h 77% 0in /  0.0mm
12:14 52.2 °F /  11.2 °C 44.8 °F /  7.1 °C 29.6in /  1001.9hPa SSW 12.5mph /  20.1km/h 14.3mph /  23.0km/h 76% 0in /  0.0mm
12:19 52.3 °F /  11.3 °C 44.6 °F /  7.0 °C 29.6in /  1001.9hPa SSW 9.6mph /  15.4km/h 20.8mph /  33.5km/h 75% 0in /  0.0mm
12:24 52.5 °F /  11.4 °C 44.4 °F /  6.9 °C 29.6in /  1000.9hPa SSW 7.4mph /  11.9km/h 20.8mph /  33.5km/h 74% 0in /  0.0mm
12:29 51.8 °F /  11.0 °C 44.1 °F /  6.7 °C 29.6in /  1000.9hPa South 4.9mph /  7.9km/h 13.9mph /  22.4km/h 75% 0in /  0.0mm
12:34 51.4 °F /  10.8 °C 43.7 °F /  6.5 °C 29.6in /  1000.9hPa SSW 8.7mph /  14.0km/h 12.3mph /  19.8km/h 75% 0in /  0.0mm
12:39 52 °F /  11.1 °C 43.9 °F /  6.6 °C 29.6in /  1000.9hPa SSW 12.1mph /  19.5km/h 16.6mph /  26.7km/h 74% 0in /  0.0mm
12:44 52.2 °F /  11.2 °C 43.7 °F /  6.5 °C 29.6in /  1000.9hPa SSW 7.8mph /  12.6km/h 17.2mph /  27.7km/h 73% 0in /  0.0mm
12:49 52.5 °F /  11.4 °C 44.1 °F /  6.7 °C 29.6in /  1000.9hPa SW 10.7mph /  17.2km/h 17.2mph /  27.7km/h 73% 0in /  0.0mm
12:54 52.5 °F /  11.4 °C 44.1 °F /  6.7 °C 29.6in /  1000.9hPa South 12.3mph /  19.8km/h 19mph /  30.6km/h 73% 0in /  0.0mm
12:59 52 °F /  11.1 °C 42.8 °F /  6.0 °C 29.6in /  1000.9hPa SSW 11.9mph /  19.1km/h 19mph /  30.6km/h 71% 0in /  0.0mm
13:04 52.3 °F /  11.3 °C 43.2 °F /  6.2 °C 29.6in /  1000.9hPa South 13.2mph /  21.2km/h 17.4mph /  28.0km/h 71% 0in /  0.0mm
13:09 52.5 °F /  11.4 °C 43.7 °F /  6.5 °C 29.5in /  999.9hPa SSW 12.5mph /  20.1km/h 16.8mph /  27.0km/h 72% 0in /  0.0mm
13:14 52.5 °F /  11.4 °C 43.7 °F /  6.5 °C 29.5in /  999.9hPa SSW 7.6mph /  12.2km/h 15.4mph /  24.8km/h 72% 0in /  0.0mm
13:19 52.3 °F /  11.3 °C 43.2 °F /  6.2 °C 29.5in /  999.9hPa South 12.5mph /  20.1km/h 17.4mph /  28.0km/h 71% 0in /  0.0mm
13:24 52.2 °F /  11.2 °C 43 °F /  6.1 °C 29.6in /  1001.9hPa South 8.9mph /  14.3km/h 17.4mph /  28.0km/h 71% 0in /  0.0mm
13:29 52.3 °F /  11.3 °C 43.5 °F /  6.4 °C 29.6in /  1001.9hPa South 9.8mph /  15.8km/h 17mph /  27.4km/h 72% 0in /  0.0mm
13:34 52.2 °F /  11.2 °C 42.6 °F /  5.9 °C 29.6in /  1001.9hPa SSW 10.5mph /  16.9km/h 17mph /  27.4km/h 70% 0in /  0.0mm
13:39 52.2 °F /  11.2 °C 43 °F /  6.1 °C 29.6in /  1000.9hPa SSE 12.8mph /  20.6km/h 20.6mph /  33.1km/h 71% 0in /  0.0mm
13:44 52.3 °F /  11.3 °C 43.2 °F /  6.2 °C 29.6in /  1000.9hPa SSE 13.9mph /  22.4km/h 20.6mph /  33.1km/h 71% 0in /  0.0mm
13:49 52.5 °F /  11.4 °C 43.9 °F /  6.6 °C 29.6in /  1000.9hPa SSE 13.6mph /  21.9km/h 15.4mph /  24.8km/h 72% 0in /  0.0mm
13:54 53.1 °F /  11.7 °C 44.2 °F /  6.8 °C 29.5in /  999.9hPa South 5.8mph /  9.3km/h 16.1mph /  25.9km/h 72% 0in /  0.0mm
13:59 52.9 °F /  11.6 °C 43.7 °F /  6.5 °C 29.5in /  999.9hPa SSE 8.5mph /  13.7km/h 17mph /  27.4km/h 71% 0in /  0.0mm
14:04 52.5 °F /  11.4 °C 43.2 °F /  6.2 °C 29.5in /  999.9hPa South 10.5mph /  16.9km/h 17mph /  27.4km/h 70% 0in /  0.0mm
14:09 52.9 °F /  11.6 °C 43.7 °F /  6.5 °C 29.5in /  998.9hPa South 6.5mph /  10.5km/h 14.8mph /  23.8km/h 71% 0in /  0.0mm
14:14 53.2 °F /  11.8 °C 44.2 °F /  6.8 °C 29.5in /  998.9hPa SSE 9.8mph /  15.8km/h 14.8mph /  23.8km/h 71% 0in /  0.0mm
14:19 53.2 °F /  11.8 °C 43.9 °F /  6.6 °C 29.5in /  998.9hPa South 7.6mph /  12.2km/h 13.9mph /  22.4km/h 70% 0in /  0.0mm
14:24 53.2 °F /  11.8 °C 43.3 °F /  6.3 °C 29.5in /  998.9hPa South 11mph /  17.7km/h 17.4mph /  28.0km/h 69% 0in /  0.0mm
14:29 53.2 °F /  11.8 °C 43.3 °F /  6.3 °C 29.5in /  998.9hPa WSW 10.7mph /  17.2km/h 17.4mph /  28.0km/h 69% 0in /  0.0mm
14:34 53.2 °F /  11.8 °C 42.6 °F /  5.9 °C 29.5in /  998.9hPa SSE 8.1mph /  13.0km/h 14.8mph /  23.8km/h 67% 0in /  0.0mm
14:39 53.4 °F /  11.9 °C 43.2 °F /  6.2 °C 29.5in /  998.9hPa South 6.3mph /  10.1km/h 16.6mph /  26.7km/h 68% 0in /  0.0mm
14:49 53.4 °F /  11.9 °C 42.1 °F /  5.6 °C 29.5in /  998.9hPa SSE 10.7mph /  17.2km/h 14.8mph /  23.8km/h 65% 0in /  0.0mm
14:54 53.4 °F /  11.9 °C 42.1 °F /  5.6 °C 29.5in /  997.9hPa SSE 7.8mph /  12.6km/h 17.9mph /  28.8km/h 65% 0in /  0.0mm
14:59 53.2 °F /  11.8 °C 41.5 °F /  5.3 °C 29.5in /  997.9hPa South 5.8mph /  9.3km/h 17.9mph /  28.8km/h 64% 0in /  0.0mm
15:04 53.1 °F /  11.7 °C 41.2 °F /  5.1 °C 29.5in /  997.9hPa South 8.9mph /  14.3km/h 17.2mph /  27.7km/h 64% 0in /  0.0mm
15:09 53.2 °F /  11.8 °C 41.4 °F /  5.2 °C 29.5in /  997.9hPa SSE 5.6mph /  9.0km/h 17.2mph /  27.7km/h 64% 0in /  0.0mm
15:14 53.2 °F /  11.8 °C 41.4 °F /  5.2 °C 29.5in /  997.9hPa SSE 8.7mph /  14.0km/h 15.4mph /  24.8km/h 64% 0in /  0.0mm
15:19 53.4 °F /  11.9 °C 42.1 °F /  5.6 °C 29.5in /  997.9hPa SE 7.4mph /  11.9km/h 15.4mph /  24.8km/h 65% 0in /  0.0mm
15:24 53.2 °F /  11.8 °C 41.5 °F /  5.3 °C 29.5in /  997.9hPa SE 10.7mph /  17.2km/h 15.4mph /  24.8km/h 64% 0in /  0.0mm
15:29 53.1 °F /  11.7 °C 41.2 °F /  5.1 °C 29.5in /  997.9hPa SSE 10.3mph /  16.6km/h 15.4mph /  24.8km/h 64% 0in /  0.0mm
15:34 53.2 °F /  11.8 °C 40.8 °F /  4.9 °C 29.5in /  997.9hPa SSE 10.1mph /  16.3km/h 17.4mph /  28.0km/h 63% 0in /  0.0mm
15:39 53.2 °F /  11.8 °C 41.4 °F /  5.2 °C 29.5in /  997.9hPa SSE 10.5mph /  16.9km/h 17.4mph /  28.0km/h 64% 0in /  0.0mm
15:40 53.2 °F /  11.8 °C 41.4 °F /  5.2 °C 29.5in /  997.9hPa SSE 8.1mph /  13.0km/h 17.4mph /  28.0km/h 64% 0in /  0.0mm
15:45 53.1 °F /  11.7 °C 41.5 °F /  5.3 °C 29.5in /  997.9hPa SSE 5.8mph /  9.3km/h 17.4mph /  28.0km/h 65% 0in /  0.0mm
15:50 53.1 °F /  11.7 °C 41.2 °F /  5.1 °C 29.5in /  997.9hPa SSE 8.7mph /  14.0km/h 17.4mph /  28.0km/h 64% 0in /  0.0mm
15:55 53.1 °F /  11.7 °C 41.5 °F /  5.3 °C 29.5in /  997.9hPa South 8.7mph /  14.0km/h 14.5mph /  23.3km/h 65% 0in /  0.0mm
16:00 53.1 °F /  11.7 °C 41.5 °F /  5.3 °C 29.5in /  997.9hPa SE 6.3mph /  10.1km/h 14.5mph /  23.3km/h 65% 0in /  0.0mm
16:05 52.5 °F /  11.4 °C 40.5 °F /  4.7 °C 29.5in /  997.9hPa South 10.1mph /  16.3km/h 13.6mph /  21.9km/h 63% 0in /  0.0mm
16:10 52.5 °F /  11.4 °C 40.5 °F /  4.7 °C 29.5in /  997.9hPa South 6.3mph /  10.1km/h 17.4mph /  28.0km/h 63% 0in /  0.0mm
16:15 52.5 °F /  11.4 °C 40.6 °F /  4.8 °C 29.5in /  997.9hPa South 7.8mph /  12.6km/h 17.4mph /  28.0km/h 64% 0in /  0.0mm
16:20 52.3 °F /  11.3 °C 40.8 °F /  4.9 °C 29.5in /  997.9hPa SSE 7.2mph /  11.6km/h 13.9mph /  22.4km/h 65% 0in /  0.0mm
16:25 52 °F /  11.1 °C 40.5 °F /  4.7 °C 29.5in /  997.9hPa SE 5.8mph /  9.3km/h 13mph /  20.9km/h 65% 0in /  0.0mm
16:30 51.6 °F /  10.9 °C 40.6 °F /  4.8 °C 29.5in /  997.9hPa SSE 6.3mph /  10.1km/h 13mph /  20.9km/h 66% 0in /  0.0mm
16:35 51.1 °F /  10.6 °C 40.5 °F /  4.7 °C 29.5in /  997.9hPa South 7.8mph /  12.6km/h 15.7mph /  25.3km/h 67% 0in /  0.0mm
16:40 50.9 °F /  10.5 °C 40.6 °F /  4.8 °C 29.4in /  996.8hPa SE 8.7mph /  14.0km/h 15.7mph /  25.3km/h 68% 0in /  0.0mm
16:45 50.7 °F /  10.4 °C 40.5 °F /  4.7 °C 29.4in /  996.8hPa SE 15.2mph /  24.5km/h 15.7mph /  25.3km/h 68% 0in /  0.0mm
16:50 50.5 °F /  10.3 °C 40.6 °F /  4.8 °C 29.4in /  996.8hPa SE 9.4mph /  15.1km/h 15.2mph /  24.5km/h 69% 0in /  0.0mm
16:55 50.4 °F /  10.2 °C 40.6 °F /  4.8 °C 29.4in /  996.8hPa SE 5.6mph /  9.0km/h 14.3mph /  23.0km/h 69% 0in /  0.0mm
17:00 50.4 °F /  10.2 °C 40.6 °F /  4.8 °C 29.4in /  996.8hPa SSE 10.5mph /  16.9km/h 13.4mph /  21.6km/h 69% 0in /  0.0mm
17:05 50.2 °F /  10.1 °C 40.8 °F /  4.9 °C 29.4in /  996.8hPa SE 6mph /  9.7km/h 15.4mph /  24.8km/h 70% 0in /  0.0mm
17:10 50.2 °F /  10.1 °C 40.8 °F /  4.9 °C 29.4in /  996.2hPa SSE 7.4mph /  11.9km/h 17.7mph /  28.5km/h 70% 0in /  0.0mm
17:15 50.2 °F /  10.1 °C 41.2 °F /  5.1 °C 29.4in /  996.2hPa SSE 12.8mph /  20.6km/h 17.7mph /  28.5km/h 71% 0in /  0.0mm
17:20 50.2 °F /  10.1 °C 41.2 °F /  5.1 °C 29.4in /  996.2hPa SE 11mph /  17.7km/h 17.4mph /  28.0km/h 71% 0in /  0.0mm
17:25 50.2 °F /  10.1 °C 41.2 °F /  5.1 °C 29.4in /  996.8hPa SE 11mph /  17.7km/h 16.8mph /  27.0km/h 71% 0in /  0.0mm
17:30 50 °F /  10.0 °C 41 °F /  5.0 °C 29.4in /  996.8hPa SE 10.7mph /  17.2km/h 14.5mph /  23.3km/h 71% 0in /  0.0mm
17:35 50 °F /  10.0 °C 41 °F /  5.0 °C 29.4in /  996.8hPa SSE 11mph /  17.7km/h 17.2mph /  27.7km/h 71% 0in /  0.0mm
17:40 50 °F /  10.0 °C 41.4 °F /  5.2 °C 29.4in /  996.8hPa SSE 9.8mph /  15.8km/h 17.2mph /  27.7km/h 72% 0in /  0.0mm
17:45 50 °F /  10.0 °C 41.4 °F /  5.2 °C 29.4in /  996.8hPa SE 12.3mph /  19.8km/h 16.3mph /  26.2km/h 72% 0in /  0.0mm
17:50 50 °F /  10.0 °C 41.4 °F /  5.2 °C 29.4in /  996.8hPa SSE 14.8mph /  23.8km/h 24.2mph /  38.9km/h 72% 0in /  0.0mm
17:55 50 °F /  10.0 °C 41.4 °F /  5.2 °C 29.4in /  996.8hPa SSE 9.6mph /  15.4km/h 24.2mph /  38.9km/h 72% 0in /  0.0mm
18:00 50 °F /  10.0 °C 41.4 °F /  5.2 °C 29.4in /  996.8hPa SSE 14.8mph /  23.8km/h 17.4mph /  28.0km/h 72% 0in /  0.0mm
18:05 49.8 °F /  9.9 °C 41.2 °F /  5.1 °C 29.4in /  996.8hPa SSE 8.5mph /  13.7km/h 19.9mph /  32.0km/h 72% 0in /  0.0mm
18:10 49.8 °F /  9.9 °C 41.5 °F /  5.3 °C 29.4in /  996.8hPa SSE 7.4mph /  11.9km/h 19.9mph /  32.0km/h 73% 0in /  0.0mm
18:15 49.8 °F /  9.9 °C 41.5 °F /  5.3 °C 29.4in /  996.8hPa SSE 11mph /  17.7km/h 19.5mph /  31.4km/h 73% 0in /  0.0mm
18:20 49.6 °F /  9.8 °C 41.4 °F /  5.2 °C 29.4in /  996.8hPa SE 10.7mph /  17.2km/h 15.4mph /  24.8km/h 73% 0in /  0.0mm
18:25 49.8 °F /  9.9 °C 41.5 °F /  5.3 °C 29.4in /  996.8hPa SSE 11.9mph /  19.1km/h 16.3mph /  26.2km/h 73% 0in /  0.0mm
18:30 49.8 °F /  9.9 °C 41.5 °F /  5.3 °C 29.4in /  996.8hPa South 7.4mph /  11.9km/h 17mph /  27.4km/h 73% 0in /  0.0mm
18:40 49.8 °F /  9.9 °C 41.9 °F /  5.5 °C 29.4in /  996.8hPa SSE 10.7mph /  17.2km/h 21.5mph /  34.6km/h 74% 0in /  0.0mm
18:45 49.8 °F /  9.9 °C 41.5 °F /  5.3 °C 29.4in /  996.8hPa South 10.7mph /  17.2km/h 22.1mph /  35.6km/h 73% 0in /  0.0mm
18:50 49.8 °F /  9.9 °C 41.9 °F /  5.5 °C 29.4in /  996.8hPa South 10.5mph /  16.9km/h 22.1mph /  35.6km/h 74% 0in /  0.0mm
18:55 49.6 °F /  9.8 °C 41.7 °F /  5.4 °C 29.4in /  996.8hPa South 11.2mph /  18.0km/h 20.4mph /  32.8km/h 74% 0in /  0.0mm
19:00 49.5 °F /  9.7 °C 41.9 °F /  5.5 °C 29.4in /  996.8hPa SSW 7.4mph /  11.9km/h 13.9mph /  22.4km/h 75% 0in /  0.0mm
19:05 49.1 °F /  9.5 °C 41.9 °F /  5.5 °C 29.4in /  996.8hPa South 6.3mph /  10.1km/h 13.6mph /  21.9km/h 76% 0in /  0.0mm
19:10 48.7 °F /  9.3 °C 41.9 °F /  5.5 °C 29.4in /  996.8hPa South 7.8mph /  12.6km/h 13.6mph /  21.9km/h 77% 0in /  0.0mm
19:15 48.6 °F /  9.2 °C 42.1 °F /  5.6 °C 29.4in /  996.8hPa SSW 12.1mph /  19.5km/h 13.2mph /  21.2km/h 78% 0in /  0.0mm
19:20 48.4 °F /  9.1 °C 41.9 °F /  5.5 °C 29.4in /  996.8hPa South 10.5mph /  16.9km/h 13mph /  20.9km/h 78% 0in /  0.0mm
19:25 48.4 °F /  9.1 °C 41.9 °F /  5.5 °C 29.4in /  996.8hPa SSW 10.5mph /  16.9km/h 15.7mph /  25.3km/h 78% 0in /  0.0mm
19:30 48.4 °F /  9.1 °C 42.3 °F /  5.7 °C 29.4in /  996.8hPa SSE 8.7mph /  14.0km/h 15.7mph /  25.3km/h 79% 0in /  0.0mm
19:35 48.2 °F /  9.0 °C 42.1 °F /  5.6 °C 29.4in /  996.8hPa South 6.3mph /  10.1km/h 14.5mph /  23.3km/h 79% 0in /  0.0mm
19:40 48.2 °F /  9.0 °C 42.1 °F /  5.6 °C 29.4in /  996.8hPa South 8.5mph /  13.7km/h 12.5mph /  20.1km/h 79% 0in /  0.0mm
19:45 48.2 °F /  9.0 °C 42.1 °F /  5.6 °C 29.4in /  996.8hPa SSE 7.2mph /  11.6km/h 13.2mph /  21.2km/h 79% 0in /  0.0mm
19:50 48.2 °F /  9.0 °C 42.1 °F /  5.6 °C 29.4in /  996.8hPa South 5.8mph /  9.3km/h 13.4mph /  21.6km/h 79% 0in /  0.0mm
19:55 48.2 °F /  9.0 °C 42.1 °F /  5.6 °C 29.4in /  996.2hPa South 8.5mph /  13.7km/h 13.4mph /  21.6km/h 79% 0in /  0.0mm
20:00 48.2 °F /  9.0 °C 41.7 °F /  5.4 °C 29.4in /  996.2hPa South 12.5mph /  20.1km/h 12.5mph /  20.1km/h 78% 0in /  0.0mm
20:05 48.2 °F /  9.0 °C 41.7 °F /  5.4 °C 29.4in /  996.2hPa SSE 10.1mph /  16.3km/h 13mph /  20.9km/h 78% 0in /  0.0mm
20:10 48.4 °F /  9.1 °C 41.9 °F /  5.5 °C 29.4in /  996.8hPa South 8.1mph /  13.0km/h 13mph /  20.9km/h 78% 0in /  0.0mm
20:15 48.4 °F /  9.1 °C 41.9 °F /  5.5 °C 29.4in /  996.8hPa SSE 5.8mph /  9.3km/h 13mph /  20.9km/h 78% 0in /  0.0mm
20:20 48.4 °F /  9.1 °C 41.9 °F /  5.5 °C 29.4in /  996.8hPa SSE 11mph /  17.7km/h 13.2mph /  21.2km/h 78% 0in /  0.0mm
20:26 48.4 °F /  9.1 °C 41.5 °F /  5.3 °C 29.4in /  996.2hPa South 9.4mph /  15.1km/h 15.4mph /  24.8km/h 77% 0in /  0.0mm
20:31 48.4 °F /  9.1 °C 41.5 °F /  5.3 °C 29.4in /  996.2hPa South 12.5mph /  20.1km/h 15.4mph /  24.8km/h 77% 0in /  0.0mm
20:36 48.2 °F /  9.0 °C 41.4 °F /  5.2 °C 29.4in /  996.2hPa South 8.7mph /  14.0km/h 14.8mph /  23.8km/h 77% 0in /  0.0mm
20:41 48.2 °F /  9.0 °C 41.7 °F /  5.4 °C 29.4in /  995.1hPa South 7.8mph /  12.6km/h 14.5mph /  23.3km/h 78% 0in /  0.0mm
20:46 48 °F /  8.9 °C 41.5 °F /  5.3 °C 29.4in /  995.1hPa SE 6mph /  9.7km/h 12.8mph /  20.6km/h 78% 0in /  0.0mm
20:51 47.8 °F /  8.8 °C 41.4 °F /  5.2 °C 29.4in /  995.1hPa South 12.5mph /  20.1km/h 13mph /  20.9km/h 78% 0in /  0.0mm
20:56 47.8 °F /  8.8 °C 41.7 °F /  5.4 °C 29.4in /  996.2hPa South 5.8mph /  9.3km/h 13mph /  20.9km/h 79% 0in /  0.0mm
21:01 47.8 °F /  8.8 °C 42.1 °F /  5.6 °C 29.4in /  996.2hPa SSW 8.7mph /  14.0km/h 13mph /  20.9km/h 80% 0in /  0.0mm
21:06 47.8 °F /  8.8 °C 42.1 °F /  5.6 °C 29.4in /  996.2hPa South 10.1mph /  16.3km/h 10.1mph /  16.3km/h 80% 0in /  0.0mm
21:11 47.8 °F /  8.8 °C 42.1 °F /  5.6 °C 29.4in /  996.2hPa SSE 6.3mph /  10.1km/h 12.8mph /  20.6km/h 80% 0in /  0.0mm
21:16 47.8 °F /  8.8 °C 41.7 °F /  5.4 °C 29.4in /  996.2hPa South 5.6mph /  9.0km/h 15.4mph /  24.8km/h 79% 0in /  0.0mm
21:21 47.8 °F /  8.8 °C 42.1 °F /  5.6 °C 29.4in /  996.2hPa South 6.3mph /  10.1km/h 15.4mph /  24.8km/h 80% 0in /  0.0mm
21:26 47.7 °F /  8.7 °C 41.7 °F /  5.4 °C 29.4in /  996.2hPa SSE 6.3mph /  10.1km/h 10.1mph /  16.3km/h 80% 0in /  0.0mm
21:31 47.7 °F /  8.7 °C 41.7 °F /  5.4 °C 29.4in /  996.2hPa South 3.8mph /  6.1km/h 10.1mph /  16.3km/h 80% 0in /  0.0mm
21:36 47.7 °F /  8.7 °C 41.7 °F /  5.4 °C 29.4in /  996.2hPa South 5.8mph /  9.3km/h 10.7mph /  17.2km/h 80% 0in /  0.0mm
21:41 47.7 °F /  8.7 °C 42.3 °F /  5.7 °C 29.4in /  996.2hPa South 8.5mph /  13.7km/h 13mph /  20.9km/h 81% 0in /  0.0mm
21:46 47.5 °F /  8.6 °C 42.1 °F /  5.6 °C 29.4in /  996.2hPa South 5.4mph /  8.7km/h 13mph /  20.9km/h 81% 0in /  0.0mm
21:51 47.3 °F /  8.5 °C 42.1 °F /  5.6 °C 29.4in /  996.2hPa SSW 8.7mph /  14.0km/h 10.3mph /  16.6km/h 82% 0in /  0.0mm
21:56 47.1 °F /  8.4 °C 42.3 °F /  5.7 °C 29.4in /  996.2hPa South 6mph /  9.7km/h 10.5mph /  16.9km/h 83% 0in /  0.0mm
22:01 46.9 °F /  8.3 °C 42.4 °F /  5.8 °C 29.4in /  996.2hPa South 5.8mph /  9.3km/h 10.5mph /  16.9km/h 84% 0in /  0.0mm
22:06 46.8 °F /  8.2 °C 42.4 °F /  5.8 °C 29.4in /  996.2hPa South 6.5mph /  10.5km/h 10.5mph /  16.9km/h 85% 0in /  0.0mm
22:11 46.6 °F /  8.1 °C 42.6 °F /  5.9 °C 29.4in /  996.2hPa SSW 7.6mph /  12.2km/h 9.6mph /  15.4km/h 86% 0in /  0.0mm
22:16 46.6 °F /  8.1 °C 43.2 °F /  6.2 °C 29.4in /  996.2hPa SSW 6.9mph /  11.1km/h 9.8mph /  15.8km/h 88% 0in /  0.0mm
22:21 46.2 °F /  7.9 °C 43.2 °F /  6.2 °C 29.4in /  996.2hPa South 6mph /  9.7km/h 9.8mph /  15.8km/h 89% 0in /  0.0mm
22:26 46 °F /  7.8 °C 43.5 °F /  6.4 °C 29.4in /  996.2hPa SSW 7.6mph /  12.2km/h 13mph /  20.9km/h 91% 0in /  0.0mm
22:31 45.9 °F /  7.7 °C 43.7 °F /  6.5 °C 29.4in /  996.2hPa SSW 5.6mph /  9.0km/h 13mph /  20.9km/h 92% 0in /  0.0mm
22:36 45.9 °F /  7.7 °C 43.7 °F /  6.5 °C 29.4in /  996.2hPa SW 4.3mph /  6.9km/h 10.7mph /  17.2km/h 92% 0in /  0.0mm
22:41 45.9 °F /  7.7 °C 43.5 °F /  6.4 °C 29.4in /  996.8hPa SSW 7.6mph /  12.2km/h 7.8mph /  12.6km/h 92% 0in /  0.0mm
22:46 45.7 °F /  7.6 °C 43.3 °F /  6.3 °C 29.4in /  996.8hPa SW 7.6mph /  12.2km/h 7.8mph /  12.6km/h 92% 0in /  0.0mm
22:51 45.3 °F /  7.4 °C 43.5 °F /  6.4 °C 29.4in /  996.8hPa SSW 4.9mph /  7.9km/h 7.6mph /  12.2km/h 93% 0in /  0.0mm
22:56 45.1 °F /  7.3 °C 43.3 °F /  6.3 °C 29.4in /  996.8hPa SSW 8.1mph /  13.0km/h 8.1mph /  13.0km/h 93% 0in /  0.0mm
23:01 45.1 °F /  7.3 °C 43.5 °F /  6.4 °C 29.4in /  996.8hPa SW 5.8mph /  9.3km/h 8.1mph /  13.0km/h 94% 0in /  0.0mm
23:06 45.1 °F /  7.3 °C 43.5 °F /  6.4 °C 29.4in /  996.8hPa WSW 6.5mph /  10.5km/h 8.7mph /  14.0km/h 94% 0in /  0.0mm
23:11 45.1 °F /  7.3 °C 43.5 °F /  6.4 °C 29.4in /  996.8hPa SSW 6.3mph /  10.1km/h 8.7mph /  14.0km/h 94% 0in /  0.0mm
23:16 45.3 °F /  7.4 °C 44.1 °F /  6.7 °C 29.4in /  996.8hPa WSW 5.8mph /  9.3km/h 8.5mph /  13.7km/h 95% 0in /  0.0mm
23:21 45.1 °F /  7.3 °C 43.9 °F /  6.6 °C 29.4in /  996.8hPa SW 4.5mph /  7.2km/h 8.5mph /  13.7km/h 95% 0in /  0.0mm
23:26 45.1 °F /  7.3 °C 43.9 °F /  6.6 °C 29.4in /  996.8hPa WSW 5.8mph /  9.3km/h 7.8mph /  12.6km/h 95% 0in /  0.0mm
23:31 45.1 °F /  7.3 °C 43.9 °F /  6.6 °C 29.4in /  996.8hPa WSW 6.3mph /  10.1km/h 7.6mph /  12.2km/h 95% 0in /  0.0mm
23:36 45.1 °F /  7.3 °C 43.7 °F /  6.5 °C 29.4in /  996.8hPa WSW 4.9mph /  7.9km/h 7.8mph /  12.6km/h 95% 0in /  0.0mm
23:41 45.1 °F /  7.3 °C 43.7 °F /  6.5 °C 29.4in /  996.8hPa SSW 6mph /  9.7km/h 9.2mph /  14.8km/h 95% 0in /  0.0mm
23:46 45 °F /  7.2 °C 43.5 °F /  6.4 °C 29.4in /  996.8hPa WSW 6.5mph /  10.5km/h 11mph /  17.7km/h 95% 0in /  0.0mm
23:51 45 °F /  7.2 °C 43.5 °F /  6.4 °C 29.4in /  996.8hPa WSW 8.1mph /  13.0km/h 11mph /  17.7km/h 95% 0in /  0.0mm
23:56 44.8 °F /  7.1 °C 43.3 °F /  6.3 °C 29.4in /  996.8hPa WSW 7.8mph /  12.6km/h 10.5mph /  16.9km/h 95% 0in /  0.0mm
Données Historique de Météo Turbie

Mise a jour : 21/05/2018 17:02:12
Généré par Cumulus 1.9.4 (1099)